Список аэропортов
Фактическая погода:

15 августа, 23:30
Температура: +19°C (+19.0*)
Ветер: западный 3 м/с
Давление: *761 мм
неб. облачность
кучево-дождевые 1320 м
разорв. обл.
2880 м
Время (МСК)Темп. СВетерВлажностьДавлениеОблачностьОсадки
21:00+22ЮЗ, 2 м/с52%1014 гПаоблачно
22:00+21ЮЗ, 2 м/с59%1014 гПаоблачно
23:00+19ЮЗ, 2 м/с66%1014 гПаясно
16 августа
00:00+18З, 1 м/с74%1015 гПамалооблачно
01:00+17З, 1 м/с81%1015 гПаоблачно
02:00+16З, 1 м/с86%1016 гПаоблачно
03:00+17З, 1 м/с88%1016 гПаоблачно
04:00+17З, 1 м/с88%1016 гПаоблачно
05:00+16ЮЗ, 1 м/с91%1016 гПаоблачно
06:00+16ЮЗ, 1 м/с92%1016 гПаоблачно
07:00+16З, 2 м/с89%1017 гПаоблачно
08:00+17З, 2 м/с86%1017 гПаоблачно
09:00+18З, 3 м/с80%1018 гПаоблачно
10:00+19З, 3 м/с76%1018 гПаоблачно
11:00+20З, 3 м/с75%1018 гПаоблачно
12:00+21З, 3 м/с70%1018 гПаоблачно
13:00+21СЗ, 4 м/с65%1018 гПаоблачно
14:00+22СЗ, 3 м/с64%1019 гПаоблачно
15:00+22СЗ, 3 м/с59%1018 гПаоблачно
16:00+23СЗ, 3 м/с55%1018 гПас прояснениями
17:00+23С, 3 м/с52%1018 гПас прояснениями
18:00+23С, 3 м/с53%1018 гПас прояснениями
19:00+22С, 3 м/с55%1018 гПас прояснениями
20:00+22С, 3 м/с58%1019 гПаоблачно
21:00+21С, 3 м/с61%1019 гПаоблачно
22:00+21С, 2 м/с65%1020 гПас прояснениями
23:00+20С, 2 м/с68%1020 гПас прояснениями
17 августа
00:00+19С, 2 м/с71%1020 гПаоблачно
01:00+19С, 2 м/с74%1020 гПас прояснениями
02:00+18С, 1 м/с79%1021 гПаоблачно
03:00+18С, 2 м/с80%1021 гПаоблачно
04:00+18С, 2 м/с81%1021 гПаоблачно
05:00+18С, 2 м/с84%1021 гПаоблачно
06:00+17С, 2 м/с84%1021 гПаоблачно
07:00+18С, 3 м/с81%1021 гПаоблачно
08:00+18СВ, 3 м/с76%1021 гПаоблачно
09:00+19СВ, 3 м/с73%1021 гПаоблачно
10:00+19СВ, 2 м/с74%1021 гПаоблачно
11:00+20СВ, 2 м/с75%1021 гПаоблачно
12:00+22СВ, 2 м/с70%1021 гПас прояснениями
13:00+25СВ, 3 м/с55%1020 гПас прояснениями
14:00+25В, 3 м/с48%1020 гПаоблачно
15:00+25В, 3 м/с47%1019 гПаоблачно
16:00+24В, 3 м/с49%1019 гПаоблачно
17:00+24В, 3 м/с48%1019 гПаоблачно
18:00+24В, 3 м/с48%1019 гПаоблачно
19:00+24СВ, 3 м/с50%1018 гПас прояснениями
20:00+23В, 4 м/с55%1018 гПаоблачно
21:00+22В, 4 м/с56%1019 гПаоблачно